createdAt,value
2022-08-22T00:02:48.063Z,2.58
2022-08-22T00:02:54.798Z,1.52
2022-08-22T00:04:57.940Z,1.15
2022-08-22T00:09:54.132Z,1.77
2022-08-22T00:14:47.255Z,1.63
2022-08-22T00:19:51.913Z,1.48
2022-08-22T00:25:25.419Z,1.10
2022-08-22T00:30:39.380Z,2.00
2022-08-22T00:36:09.496Z,1.15
2022-08-22T00:41:28.143Z,1.67
2022-08-22T00:47:05.871Z,1.23
2022-08-22T00:52:16.373Z,0.98
2022-08-22T00:57:12.727Z,1.10
2022-08-22T01:02:43.849Z,1.02
2022-08-22T01:07:51.652Z,1.10
2022-08-22T01:12:59.030Z,0.98
2022-08-22T01:18:16.755Z,0.93
2022-08-22T01:23:46.803Z,1.35
2022-08-22T01:34:36.370Z,1.10
2022-08-22T01:39:37.663Z,1.10
2022-08-22T01:44:44.501Z,1.30
2022-08-22T01:50:22.073Z,1.40
2022-08-22T01:55:27.759Z,1.20
2022-08-22T02:00:34.703Z,1.38
2022-08-22T02:05:39.319Z,1.42
2022-08-22T02:11:00.415Z,1.02
2022-08-22T02:16:27.680Z,1.20
2022-08-22T02:21:33.621Z,1.63
2022-08-22T02:26:50.539Z,1.33
2022-08-22T02:32:14.703Z,1.40
2022-08-22T02:37:10.638Z,1.35
2022-08-22T02:42:29.290Z,1.65
2022-08-22T02:47:47.503Z,1.55
2022-08-22T02:53:17.487Z,1.30
2022-08-22T03:03:20.212Z,1.77
2022-08-22T03:08:24.385Z,1.80
2022-08-22T03:13:27.331Z,2.03
2022-08-22T03:18:38.961Z,1.92
2022-08-22T03:23:35.951Z,1.80
2022-08-22T03:28:59.471Z,1.33
2022-08-22T03:34:32.596Z,1.80
2022-08-22T03:39:58.511Z,1.70
2022-08-22T03:44:56.978Z,1.70
2022-08-22T03:50:18.136Z,1.30
2022-08-22T03:55:14.748Z,1.30
2022-08-22T04:00:56.709Z,1.80
2022-08-22T04:06:12.631Z,1.23
2022-08-22T04:11:09.367Z,1.40
2022-08-22T04:16:38.105Z,1.48
2022-08-22T04:21:49.559Z,1.17
2022-08-22T04:26:56.693Z,1.35
2022-08-22T04:32:03.781Z,1.58
2022-08-22T04:37:25.943Z,1.33
2022-08-22T04:42:38.198Z,1.13
2022-08-22T04:47:37.109Z,1.27
2022-08-22T04:52:50.066Z,1.30
2022-08-22T04:58:12.658Z,1.30
2022-08-22T05:03:16.761Z,1.17
2022-08-22T05:08:32.732Z,1.52
2022-08-22T05:13:44.656Z,1.60
2022-08-22T05:18:53.701Z,1.20
2022-08-22T05:24:17.753Z,1.30
2022-08-22T05:29:14.324Z,1.20
2022-08-22T05:34:39.387Z,1.52
2022-08-22T05:39:41.868Z,1.75
2022-08-22T05:44:38.927Z,1.83
2022-08-22T05:49:49.467Z,2.28
2022-08-22T05:54:53.395Z,2.80
2022-08-22T05:59:54.739Z,2.30
2022-08-22T06:05:01.395Z,1.98
2022-08-22T06:10:26.502Z,1.70
2022-08-22T06:15:39.987Z,2.22
2022-08-22T06:21:10.297Z,2.47
2022-08-22T06:26:06.296Z,2.30
2022-08-22T06:31:37.141Z,1.17
2022-08-22T06:36:34.092Z,1.50
2022-08-22T06:41:31.679Z,1.55
2022-08-22T06:46:28.374Z,1.15
2022-08-22T06:51:24.270Z,1.42
2022-08-22T06:56:34.675Z,1.40
2022-08-22T07:01:45.362Z,1.58
2022-08-22T07:06:50.553Z,1.40
2022-08-22T07:11:44.750Z,1.55
2022-08-22T07:16:46.091Z,1.50
2022-08-22T07:21:47.034Z,1.45
2022-08-22T07:26:47.767Z,1.38
2022-08-22T07:31:50.903Z,1.55
2022-08-22T07:37:22.008Z,1.60
2022-08-22T07:42:28.632Z,1.35
2022-08-22T07:47:27.284Z,1.50
2022-08-22T07:52:22.260Z,2.22
2022-08-22T07:57:37.743Z,1.60
2022-08-22T08:02:32.406Z,1.40
2022-08-22T08:07:28.944Z,1.27
2022-08-22T08:12:38.416Z,1.50
2022-08-22T08:17:34.646Z,1.60
2022-08-22T08:22:28.627Z,1.83
2022-08-22T08:27:50.127Z,1.50
2022-08-22T08:32:49.144Z,1.58
2022-08-22T08:37:49.395Z,2.00
2022-08-22T08:43:25.400Z,1.60
2022-08-22T08:48:44.725Z,1.90
2022-08-22T08:53:59.479Z,1.93
2022-08-22T08:59:10.223Z,1.70
2022-08-22T09:04:17.178Z,2.30
2022-08-22T09:09:31.055Z,1.95
2022-08-22T09:14:44.351Z,2.58
2022-08-22T09:19:56.791Z,2.10
2022-08-22T09:24:49.979Z,2.03
2022-08-22T09:29:54.537Z,1.90
2022-08-22T09:34:59.731Z,1.83
2022-08-22T09:40:01.381Z,1.65
2022-08-22T09:45:38.966Z,1.30
2022-08-22T09:51:13.490Z,1.40
2022-08-22T09:56:21.461Z,1.35
2022-08-22T10:01:19.175Z,1.20
2022-08-22T10:06:23.132Z,1.10
2022-08-22T10:11:26.422Z,1.17
2022-08-22T10:16:27.698Z,1.05
2022-08-22T10:21:25.203Z,1.20
2022-08-22T10:26:22.597Z,0.80
2022-08-22T10:31:58.367Z,0.63
2022-08-22T10:37:03.864Z,0.95
2022-08-22T10:42:28.202Z,0.70
2022-08-22T10:47:38.718Z,0.80
2022-08-22T10:52:39.192Z,0.82
2022-08-22T10:57:43.511Z,1.00
2022-08-22T11:02:53.095Z,1.17
2022-08-22T11:13:07.835Z,0.90
2022-08-22T11:18:27.101Z,1.08
2022-08-22T11:23:42.454Z,0.95
2022-08-22T11:28:55.863Z,1.00
2022-08-22T11:34:07.329Z,0.68
2022-08-22T11:39:18.417Z,0.57
2022-08-22T11:45:00.524Z,0.40
2022-08-22T11:50:24.565Z,0.60
2022-08-22T11:55:23.765Z,0.60
2022-08-22T12:00:17.656Z,0.50
2022-08-22T12:05:24.583Z,0.65
2022-08-22T12:10:30.996Z,0.55
2022-08-22T12:15:46.932Z,0.43
2022-08-22T12:21:04.980Z,0.40
2022-08-22T12:26:22.264Z,0.45
2022-08-22T12:31:20.975Z,0.70
2022-08-22T12:36:39.062Z,0.57
2022-08-22T12:42:04.278Z,0.50
2022-08-22T12:47:19.986Z,0.50
2022-08-22T12:52:31.262Z,0.50
2022-08-22T12:57:43.313Z,0.52
2022-08-22T13:02:39.888Z,0.40
2022-08-22T13:07:39.191Z,0.60
2022-08-22T13:12:44.112Z,0.60
2022-08-22T13:17:39.000Z,0.43
2022-08-22T13:22:36.088Z,0.73
2022-08-22T13:27:51.289Z,0.50
2022-08-22T13:32:52.774Z,0.60
2022-08-22T13:37:50.655Z,0.50
2022-08-22T13:43:02.066Z,0.80
2022-08-22T13:48:03.775Z,0.60
2022-08-22T13:53:02.453Z,0.70
2022-08-22T13:58:06.956Z,0.80
2022-08-22T14:03:32.893Z,0.70
2022-08-22T14:08:49.079Z,0.57
2022-08-22T14:14:00.109Z,0.55
2022-08-22T14:18:57.927Z,0.73
2022-08-22T14:24:07.061Z,0.98
2022-08-22T14:29:04.886Z,0.73
2022-08-22T14:34:11.054Z,0.82
2022-08-22T14:39:21.875Z,0.43
2022-08-22T14:44:44.881Z,0.77
2022-08-22T14:49:49.924Z,0.55
2022-08-22T14:54:50.918Z,0.40
2022-08-22T14:59:44.282Z,0.68
2022-08-22T15:04:44.344Z,0.60
2022-08-22T15:09:37.594Z,0.63
2022-08-22T15:14:36.662Z,0.50
2022-08-22T15:19:36.763Z,0.45
2022-08-22T15:24:39.662Z,0.63
2022-08-22T15:29:49.336Z,0.40
2022-08-22T15:34:52.459Z,0.60
2022-08-22T15:40:08.564Z,0.50
2022-08-22T15:45:05.176Z,0.60
2022-08-22T15:50:05.563Z,0.35
2022-08-22T15:55:23.292Z,0.45
2022-08-22T16:01:03.472Z,0.50
2022-08-22T16:06:05.272Z,0.52
2022-08-22T16:11:03.372Z,0.57
2022-08-22T16:16:04.918Z,0.40
2022-08-22T16:20:58.050Z,0.50
2022-08-22T16:25:52.276Z,0.50
2022-08-22T16:30:46.773Z,0.40
2022-08-22T16:36:17.492Z,0.65
2022-08-22T16:41:35.253Z,0.60
2022-08-22T16:46:38.707Z,0.47
2022-08-22T16:51:32.832Z,0.80
2022-08-22T16:56:55.510Z,0.75
2022-08-22T17:02:19.898Z,0.63
2022-08-22T17:07:16.046Z,0.60
2022-08-22T17:12:45.846Z,0.73
2022-08-22T17:18:12.235Z,0.50
2022-08-22T17:23:38.414Z,0.55
2022-08-22T17:28:43.469Z,0.70
2022-08-22T17:33:41.846Z,0.50
2022-08-22T17:38:55.944Z,0.52
2022-08-22T17:44:23.296Z,0.70
2022-08-22T17:49:35.831Z,0.73
2022-08-22T17:54:49.495Z,0.85
2022-08-22T18:00:13.202Z,0.70
2022-08-22T18:05:08.794Z,0.70
2022-08-22T18:10:06.684Z,0.90
2022-08-22T18:15:26.229Z,0.70
2022-08-22T18:25:19.151Z,0.80
2022-08-22T18:30:11.996Z,0.50
2022-08-22T18:35:17.528Z,0.80
2022-08-22T18:40:45.535Z,0.60
2022-08-22T18:45:46.099Z,0.43
2022-08-22T18:50:40.144Z,0.75
2022-08-22T18:56:04.597Z,1.10
2022-08-22T19:01:08.804Z,0.80
2022-08-22T19:06:22.866Z,0.85
2022-08-22T19:11:23.412Z,0.98
2022-08-22T19:16:45.080Z,1.10
2022-08-22T19:21:57.172Z,1.38
2022-08-22T19:27:10.619Z,1.38
2022-08-22T19:32:12.783Z,1.00
2022-08-22T19:37:30.695Z,1.48
2022-08-22T19:42:27.632Z,0.98
2022-08-22T19:47:24.824Z,1.50
2022-08-22T19:52:30.046Z,1.15
2022-08-22T19:57:47.573Z,1.10
2022-08-22T20:02:59.560Z,1.17
2022-08-22T20:08:34.789Z,1.75
2022-08-22T20:13:32.475Z,1.42
2022-08-22T20:19:07.828Z,1.20
2022-08-22T20:24:12.598Z,1.00
2022-08-22T20:29:08.125Z,1.20
2022-08-22T20:34:09.235Z,1.20
2022-08-22T20:39:16.329Z,0.88
2022-08-22T20:44:22.484Z,1.00
2022-08-22T20:49:29.528Z,0.90
2022-08-22T20:54:26.348Z,1.13
2022-08-22T20:59:37.842Z,1.40
2022-08-22T21:04:58.287Z,1.30
2022-08-22T21:10:22.564Z,1.02
2022-08-22T21:15:30.455Z,0.70
2022-08-22T21:20:24.696Z,0.95
2022-08-22T21:25:18.210Z,0.85
2022-08-22T21:30:22.035Z,0.93
2022-08-22T21:35:55.501Z,0.90
2022-08-22T21:40:48.669Z,0.88
2022-08-22T21:45:46.006Z,0.80
2022-08-22T21:50:42.121Z,0.77
2022-08-22T21:55:43.922Z,0.93
2022-08-22T22:00:49.447Z,0.98
2022-08-22T22:05:44.540Z,0.90
2022-08-22T22:10:40.437Z,1.10
2022-08-22T22:15:40.695Z,1.02
2022-08-22T22:20:35.033Z,0.70
2022-08-22T22:25:40.973Z,0.80
2022-08-22T22:30:42.127Z,0.98
2022-08-22T22:35:35.271Z,1.40
2022-08-22T22:40:29.723Z,1.15
2022-08-22T22:45:23.522Z,1.33
2022-08-22T22:50:18.449Z,1.52
2022-08-22T22:55:12.789Z,1.73
2022-08-22T23:00:18.996Z,1.55
2022-08-22T23:05:12.756Z,1.33
2022-08-22T23:10:08.023Z,1.30
2022-08-22T23:15:01.070Z,1.20
2022-08-22T23:19:54.503Z,1.10
2022-08-22T23:24:50.929Z,1.20
2022-08-22T23:29:44.516Z,1.05
2022-08-22T23:34:43.413Z,1.90
2022-08-22T23:39:39.122Z,1.90
2022-08-22T23:44:36.943Z,1.50
2022-08-22T23:49:31.059Z,1.60
2022-08-22T23:54:25.592Z,1.90
2022-08-22T23:59:21.495Z,1.75
